CheckWX is a tool to help pilots better visualize weather data.  It is not intended as a substitute for an official pre-flight weather briefing.

12:21:38 UTC

EGGW TAF
London Luton Airport
London, United Kingdom
TAF EGGW 271059Z 2712/2812 07011KT CAVOK BECMG 2721/2724 BKN008 BECMG 2805/2809 CAVOK

Jun-27@
12:00 UTC

Jun-27 @ 12:00 UTC

Jun-27@
21:00 UTC

Jun-27 @ 21:00 UTC

TAF EGGW 271059Z 2712/2812 07011KT CAVOK
Wind
  • 070° at 11 KTS
Conditions
No significant weather
Cloud Levels
  • No significant clouds

Jun-27@
21:00 UTC

Jun-27 @ 21:00 UTC

Jun-28@
05:00 UTC

Jun-28 @ 05:00 UTC

BECMG 2721/2724 BKN008

Becoming

Becoming Conditions expected by Fri, Jun 28, 2019 @ 00:00 UTC

Wind
  • 070° at 11 KTS
Conditions
No significant weather
Cloud Levels
  • Broken at 800' AGL

Jun-28@
05:00 UTC

Jun-28 @ 05:00 UTC

Jun-28@
12:00 UTC

Jun-28 @ 12:00 UTC

BECMG 2805/2809 CAVOK

Becoming

Becoming Conditions expected by Fri, Jun 28, 2019 @ 09:00 UTC

Wind
  • 070° at 11 KTS
Conditions
No significant weather
Cloud Levels
  • No significant clouds